首页
METAR-TAF:

METAR-TAF

机场 :

薩拉熱窩國際機場

塞拉耶佛, 波斯尼亚和黑塞哥维那

纬度: 43-49N, 经度: 018-20E, 海拔: 511米

当前天气观测

该预报发布于2小时和27分钟前的16:00 UTC
风速18节,风向
温度 18°C
湿度 68%
气压 1004 hPa
能见度10公里或以上
少量云层高于4000英尺
散云层高于5500英尺

METAR: LQSA 051600Z 17018KT 9999 FEW040 SCT055 18/12 Q1004 WS ALL RWY NOSIG

时间: 20:27 (18:27 UTC)

预报

该预报发布于7小时和27分钟前的11:00 UTC
预报有效从05日的 12点(UTC)到 06日的 12点(UTC)
风速8节,风向南转南东
能见度10公里或以上
多云层高于5000英尺
短暂存在
从 05日的 12点(UTC)到 05日的 19点(UTC)
风速15节,风向南转南东,有时为30节阵风
几率 30% :
短暂存在
从 05日的 12点(UTC)到 05日的 16点(UTC)
少量云层高于3500英尺, 积雨云.
多云层高于4000英尺
雷暴, 雨

TAF: LQSA 051100Z 0512/0612 15008KT 9999 BKN050 TX23/0612Z TN11/0602Z TEMPO 0512/0519 15015G30KT RA PROB30 TEMPO 0512/0516 TSRA FEW035CB BKN040

超过4000个机场的气象观测和天气预报(METAR&TAF报告)。

可查询的气象台以黄色和红色小点在地图上表示。

将鼠标移到小点上方,可查看气象台名称。

然后点击查看天气观测和预报。

如需切换地图:点击带黑十字的绿色按钮放大地图;点击带横线的绿色按钮缩小地图;或者点击绿色箭头查看邻近地区的地图。


METAR-TAF: